sensor_id;sensor_type;location;lat;lon;timestamp;pressure;altitude;pressure_sealevel;temperature;humidity
57948;BME280;43754;56.992;24.292;2023-05-02T00:01:57;101419.25;;;6.38;80.77
57948;BME280;43754;56.992;24.292;2023-05-02T00:04:29;101406.63;;;6.40;80.92
57948;BME280;43754;56.992;24.292;2023-05-02T00:07:01;101395.97;;;6.40;80.92
57948;BME280;43754;56.992;24.292;2023-05-02T00:09:35;101395.28;;;6.38;80.85
57948;BME280;43754;56.992;24.292;2023-05-02T00:12:07;101396.53;;;6.34;81.38
57948;BME280;43754;56.992;24.292;2023-05-02T00:14:39;101390.63;;;6.31;81.23
57948;BME280;43754;56.992;24.292;2023-05-02T00:17:15;101395.81;;;6.32;82.09
57948;BME280;43754;56.992;24.292;2023-05-02T00:19:48;101392.63;;;6.38;81.37
57948;BME280;43754;56.992;24.292;2023-05-02T00:22:20;101387.84;;;6.42;81.34
57948;BME280;43754;56.992;24.292;2023-05-02T00:24:56;101383.09;;;6.45;82.41
57948;BME280;43754;56.992;24.292;2023-05-02T00:27:29;101381.72;;;6.51;81.97
57948;BME280;43754;56.992;24.292;2023-05-02T00:30:01;101370.47;;;6.57;81.78
57948;BME280;43754;56.992;24.292;2023-05-02T00:32:33;101370.19;;;6.60;81.42
57948;BME280;43754;56.992;24.292;2023-05-02T00:35:07;101365.72;;;6.61;81.93
57948;BME280;43754;56.992;24.292;2023-05-02T00:37:39;101365.59;;;6.62;81.34
57948;BME280;43754;56.992;24.292;2023-05-02T00:40:13;101363.50;;;6.66;81.67
57948;BME280;43754;56.992;24.292;2023-05-02T00:42:45;101361.53;;;6.68;81.19
57948;BME280;43754;56.992;24.292;2023-05-02T00:45:17;101354.22;;;6.70;80.74
57948;BME280;43754;56.992;24.292;2023-05-02T00:47:49;101345.41;;;6.69;80.79
57948;BME280;43754;56.992;24.292;2023-05-02T00:50:21;101348.78;;;6.71;80.79
57948;BME280;43754;56.992;24.292;2023-05-02T00:52:54;101346.50;;;6.76;80.05
57948;BME280;43754;56.992;24.292;2023-05-02T00:55:28;101347.94;;;6.80;79.61
57948;BME280;43754;56.992;24.292;2023-05-02T00:58:01;101348.19;;;6.87;79.72
57948;BME280;43754;56.992;24.292;2023-05-02T01:00:57;101347.06;;;6.89;80.13
57948;BME280;43754;56.992;24.292;2023-05-02T01:03:40;101347.78;;;6.91;80.38
57948;BME280;43754;56.992;24.292;2023-05-02T01:06:27;101334.31;;;6.93;80.51
57948;BME280;43754;56.992;24.292;2023-05-02T01:09:13;101336.00;;;6.94;80.45
57948;BME280;43754;56.992;24.292;2023-05-02T01:11:55;101336.84;;;6.94;81.18
57948;BME280;43754;56.992;24.292;2023-05-02T01:14:31;101325.19;;;6.96;81.13
57948;BME280;43754;56.992;24.292;2023-05-02T01:17:06;101317.47;;;7.02;80.23
57948;BME280;43754;56.992;24.292;2023-05-02T01:19:43;101317.31;;;7.04;79.38
57948;BME280;43754;56.992;24.292;2023-05-02T01:22:21;101317.19;;;7.05;79.11
57948;BME280;43754;56.992;24.292;2023-05-02T01:25:03;101314.38;;;7.07;79.57
57948;BME280;43754;56.992;24.292;2023-05-02T01:27:46;101313.53;;;7.06;79.62
57948;BME280;43754;56.992;24.292;2023-05-02T01:30:20;101317.88;;;7.07;79.68
57948;BME280;43754;56.992;24.292;2023-05-02T01:32:54;101317.03;;;7.07;79.05
57948;BME280;43754;56.992;24.292;2023-05-02T01:35:29;101314.66;;;7.04;79.18
57948;BME280;43754;56.992;24.292;2023-05-02T01:38:05;101310.00;;;7.06;79.52
57948;BME280;43754;56.992;24.292;2023-05-02T01:40:38;101307.22;;;7.07;78.50
57948;BME280;43754;56.992;24.292;2023-05-02T01:43:12;101306.06;;;7.10;78.17
57948;BME280;43754;56.992;24.292;2023-05-02T01:45:48;101297.94;;;7.11;77.42
57948;BME280;43754;56.992;24.292;2023-05-02T01:48:22;101291.63;;;7.12;77.00
57948;BME280;43754;56.992;24.292;2023-05-02T01:50:56;101286.31;;;7.12;77.34
57948;BME280;43754;56.992;24.292;2023-05-02T01:53:30;101287.28;;;7.11;77.50
57948;BME280;43754;56.992;24.292;2023-05-02T01:56:05;101282.25;;;7.08;77.10
57948;BME280;43754;56.992;24.292;2023-05-02T01:58:38;101277.75;;;7.09;76.54
57948;BME280;43754;56.992;24.292;2023-05-02T02:01:13;101278.03;;;7.06;76.88
57948;BME280;43754;56.992;24.292;2023-05-02T02:03:46;101277.34;;;7.04;77.37
57948;BME280;43754;56.992;24.292;2023-05-02T02:06:20;101271.72;;;7.07;76.93
57948;BME280;43754;56.992;24.292;2023-05-02T02:08:52;101265.28;;;7.09;76.22
57948;BME280;43754;56.992;24.292;2023-05-02T02:11:29;101261.59;;;7.10;76.16
57948;BME280;43754;56.992;24.292;2023-05-02T02:14:06;101256.28;;;7.10;75.67
57948;BME280;43754;56.992;24.292;2023-05-02T02:16:44;101257.97;;;7.11;75.71
57948;BME280;43754;56.992;24.292;2023-05-02T02:19:17;101248.00;;;7.13;75.38
57948;BME280;43754;56.992;24.292;2023-05-02T02:21:51;101249.00;;;7.12;75.67
57948;BME280;43754;56.992;24.292;2023-05-02T02:24:25;101249.66;;;7.14;75.64
57948;BME280;43754;56.992;24.292;2023-05-02T02:26:58;101248.69;;;7.15;75.52
57948;BME280;43754;56.992;24.292;2023-05-02T02:29:30;101250.25;;;7.18;74.78
57948;BME280;43754;56.992;24.292;2023-05-02T02:32:04;101250.06;;;7.19;75.36
57948;BME280;43754;56.992;24.292;2023-05-02T02:34:36;101239.94;;;7.23;74.58
57948;BME280;43754;56.992;24.292;2023-05-02T02:37:14;101239.53;;;7.27;74.40
57948;BME280;43754;56.992;24.292;2023-05-02T02:39:54;101235.75;;;7.30;74.54
57948;BME280;43754;56.992;24.292;2023-05-02T02:42:33;101231.25;;;7.30;74.47
57948;BME280;43754;56.992;24.292;2023-05-02T02:45:17;101231.34;;;7.38;74.21
57948;BME280;43754;56.992;24.292;2023-05-02T02:48:01;101230.06;;;7.43;73.96
57948;BME280;43754;56.992;24.292;2023-05-02T02:50:51;101232.13;;;7.49;73.83
57948;BME280;43754;56.992;24.292;2023-05-02T02:53:32;101234.06;;;7.56;73.11
57948;BME280;43754;56.992;24.292;2023-05-02T02:56:05;101223.91;;;7.60;73.37
57948;BME280;43754;56.992;24.292;2023-05-02T02:58:47;101220.56;;;7.58;73.10
57948;BME280;43754;56.992;24.292;2023-05-02T03:01:23;101219.44;;;7.60;72.72
57948;BME280;43754;56.992;24.292;2023-05-02T03:04:00;101227.44;;;7.60;73.67
57948;BME280;43754;56.992;24.292;2023-05-02T03:06:36;101216.94;;;7.59;73.00
57948;BME280;43754;56.992;24.292;2023-05-02T03:09:14;101209.59;;;7.61;73.11
57948;BME280;43754;56.992;24.292;2023-05-02T03:11:50;101212.25;;;7.61;73.42
57948;BME280;43754;56.992;24.292;2023-05-02T03:14:22;101218.00;;;7.66;73.14
57948;BME280;43754;56.992;24.292;2023-05-02T03:16:55;101209.69;;;7.69;73.53
57948;BME280;43754;56.992;24.292;2023-05-02T03:19:28;101210.41;;;7.71;72.86
57948;BME280;43754;56.992;24.292;2023-05-02T03:22:01;101209.09;;;7.75;73.07
57948;BME280;43754;56.992;24.292;2023-05-02T03:24:33;101209.63;;;7.78;73.05
57948;BME280;43754;56.992;24.292;2023-05-02T03:27:07;101204.84;;;7.82;72.68
57948;BME280;43754;56.992;24.292;2023-05-02T03:29:44;101209.84;;;7.85;72.36
57948;BME280;43754;56.992;24.292;2023-05-02T03:32:16;101207.31;;;7.93;72.34
57948;BME280;43754;56.992;24.292;2023-05-02T03:34:50;101205.00;;;7.98;72.29
57948;BME280;43754;56.992;24.292;2023-05-02T03:37:22;101197.38;;;8.03;71.76
57948;BME280;43754;56.992;24.292;2023-05-02T03:39:54;101195.47;;;8.13;71.56
57948;BME280;43754;56.992;24.292;2023-05-02T03:42:26;101200.91;;;8.21;71.19
57948;BME280;43754;56.992;24.292;2023-05-02T03:44:58;101204.50;;;8.30;70.22
57948;BME280;43754;56.992;24.292;2023-05-02T03:47:32;101182.19;;;8.39;69.39
57948;BME280;43754;56.992;24.292;2023-05-02T03:50:06;101192.28;;;8.45;69.96
57948;BME280;43754;56.992;24.292;2023-05-02T03:52:39;101186.47;;;8.50;69.08
57948;BME280;43754;56.992;24.292;2023-05-02T03:55:11;101171.81;;;8.54;68.34
57948;BME280;43754;56.992;24.292;2023-05-02T03:57:43;101186.19;;;8.61;68.83
57948;BME280;43754;56.992;24.292;2023-05-02T04:00:17;101187.28;;;8.68;68.12
57948;BME280;43754;56.992;24.292;2023-05-02T04:02:56;101176.59;;;8.68;68.28
57948;BME280;43754;56.992;24.292;2023-05-02T04:05:33;101181.59;;;8.71;67.80
57948;BME280;43754;56.992;24.292;2023-05-02T04:08:05;101172.59;;;8.72;67.19
57948;BME280;43754;56.992;24.292;2023-05-02T04:10:37;101163.97;;;8.86;66.66
57948;BME280;43754;56.992;24.292;2023-05-02T04:13:13;101164.41;;;8.99;65.60
57948;BME280;43754;56.992;24.292;2023-05-02T04:15:48;101172.00;;;9.20;64.84
57948;BME280;43754;56.992;24.292;2023-05-02T04:18:24;101167.25;;;9.48;64.15
57948;BME280;43754;56.992;24.292;2023-05-02T04:20:58;101163.00;;;9.79;62.40
57948;BME280;43754;56.992;24.292;2023-05-02T04:23:31;101154.00;;;9.96;62.09
57948;BME280;43754;56.992;24.292;2023-05-02T04:26:05;101157.22;;;10.24;61.09
57948;BME280;43754;56.992;24.292;2023-05-02T04:28:47;101154.34;;;10.58;60.03
57948;BME280;43754;56.992;24.292;2023-05-02T04:31:20;101156.09;;;11.06;58.25
57948;BME280;43754;56.992;24.292;2023-05-02T04:33:55;101155.69;;;11.25;57.44
57948;BME280;43754;56.992;24.292;2023-05-02T04:36:32;101154.19;;;11.53;56.52
57948;BME280;43754;56.992;24.292;2023-05-02T04:39:06;101144.06;;;11.94;55.52
57948;BME280;43754;56.992;24.292;2023-05-02T04:41:41;101139.47;;;12.26;54.09
57948;BME280;43754;56.992;24.292;2023-05-02T04:44:13;101146.53;;;12.27;53.90
57948;BME280;43754;56.992;24.292;2023-05-02T04:46:46;101140.72;;;12.15;54.10
57948;BME280;43754;56.992;24.292;2023-05-02T04:49:18;101152.91;;;12.03;54.26
57948;BME280;43754;56.992;24.292;2023-05-02T04:51:52;101139.38;;;11.96;55.06
57948;BME280;43754;56.992;24.292;2023-05-02T04:54:26;101137.84;;;11.94;55.01
57948;BME280;43754;56.992;24.292;2023-05-02T04:56:58;101137.81;;;11.79;55.33
57948;BME280;43754;56.992;24.292;2023-05-02T04:59:33;101132.78;;;11.76;56.12
57948;BME280;43754;56.992;24.292;2023-05-02T05:02:06;101131.59;;;11.79;55.59
57948;BME280;43754;56.992;24.292;2023-05-02T05:04:41;101132.44;;;11.79;56.22
57948;BME280;43754;56.992;24.292;2023-05-02T05:07:14;101122.34;;;11.81;55.83
57948;BME280;43754;56.992;24.292;2023-05-02T05:09:49;101125.94;;;11.96;55.35
57948;BME280;43754;56.992;24.292;2023-05-02T05:12:24;101112.53;;;12.11;54.97
57948;BME280;43754;56.992;24.292;2023-05-02T05:14:57;101103.44;;;12.35;54.10
57948;BME280;43754;56.992;24.292;2023-05-02T05:17:31;101100.59;;;12.51;54.05
57948;BME280;43754;56.992;24.292;2023-05-02T05:20:04;101099.03;;;12.71;53.46
57948;BME280;43754;56.992;24.292;2023-05-02T05:22:41;101101.72;;;12.71;53.29
57948;BME280;43754;56.992;24.292;2023-05-02T05:25:16;101098.94;;;12.79;53.52
57948;BME280;43754;56.992;24.292;2023-05-02T05:27:50;101084.81;;;12.92;53.56
57948;BME280;43754;56.992;24.292;2023-05-02T05:30:23;101087.34;;;13.23;53.46
57948;BME280;43754;56.992;24.292;2023-05-02T05:32:56;101086.47;;;13.58;52.01
57948;BME280;43754;56.992;24.292;2023-05-02T05:35:32;101083.63;;;13.81;50.76
57948;BME280;43754;56.992;24.292;2023-05-02T05:38:07;101082.34;;;13.77;51.45
57948;BME280;43754;56.992;24.292;2023-05-02T05:40:41;101073.34;;;13.91;50.36
57948;BME280;43754;56.992;24.292;2023-05-02T05:43:13;101072.22;;;14.07;50.24
57948;BME280;43754;56.992;24.292;2023-05-02T05:45:46;101077.81;;;14.05;50.59
57948;BME280;43754;56.992;24.292;2023-05-02T05:48:18;101072.34;;;14.20;49.91
57948;BME280;43754;56.992;24.292;2023-05-02T05:50:50;101069.72;;;14.54;49.64
57948;BME280;43754;56.992;24.292;2023-05-02T05:53:26;101076.97;;;14.88;48.35
57948;BME280;43754;56.992;24.292;2023-05-02T05:56:07;101077.28;;;15.06;48.37
57948;BME280;43754;56.992;24.292;2023-05-02T05:58:40;101073.59;;;15.20;47.16
57948;BME280;43754;56.992;24.292;2023-05-02T06:01:15;101070.97;;;15.40;46.85
57948;BME280;43754;56.992;24.292;2023-05-02T06:03:48;101072.44;;;15.49;46.72
57948;BME280;43754;56.992;24.292;2023-05-02T06:06:21;101067.91;;;15.50;46.42
57948;BME280;43754;56.992;24.292;2023-05-02T06:08:55;101063.97;;;15.52;47.17
57948;BME280;43754;56.992;24.292;2023-05-02T06:11:27;101053.31;;;15.44;46.02
57948;BME280;43754;56.992;24.292;2023-05-02T06:14:00;101056.50;;;15.68;46.14
57948;BME280;43754;56.992;24.292;2023-05-02T06:16:32;101046.34;;;15.89;45.63
57948;BME280;43754;56.992;24.292;2023-05-02T06:19:04;101054.03;;;15.79;45.90
57948;BME280;43754;56.992;24.292;2023-05-02T06:21:36;101053.22;;;15.85;45.74
57948;BME280;43754;56.992;24.292;2023-05-02T06:24:10;101058.00;;;15.90;44.71
57948;BME280;43754;56.992;24.292;2023-05-02T06:26:42;101055.91;;;15.79;44.96
57948;BME280;43754;56.992;24.292;2023-05-02T06:29:14;101057.78;;;16.04;45.71
57948;BME280;43754;56.992;24.292;2023-05-02T06:31:46;101065.28;;;16.16;45.37
57948;BME280;43754;56.992;24.292;2023-05-02T06:34:18;101047.56;;;16.33;45.37
57948;BME280;43754;56.992;24.292;2023-05-02T06:36:53;101043.63;;;16.35;44.88
57948;BME280;43754;56.992;24.292;2023-05-02T06:39:27;101053.41;;;16.30;44.12
57948;BME280;43754;56.992;24.292;2023-05-02T06:41:59;101045.50;;;16.22;45.43
57948;BME280;43754;56.992;24.292;2023-05-02T06:44:32;101046.94;;;16.37;45.00
57948;BME280;43754;56.992;24.292;2023-05-02T06:47:04;101038.63;;;16.32;44.77
57948;BME280;43754;56.992;24.292;2023-05-02T06:49:37;101036.78;;;16.13;45.26
57948;BME280;43754;56.992;24.292;2023-05-02T06:52:09;101036.78;;;16.13;44.72
57948;BME280;43754;56.992;24.292;2023-05-02T06:54:42;101050.91;;;16.28;45.49
57948;BME280;43754;56.992;24.292;2023-05-02T06:57:14;101041.53;;;16.24;44.88
57948;BME280;43754;56.992;24.292;2023-05-02T06:59:46;101033.06;;;15.94;45.06
57948;BME280;43754;56.992;24.292;2023-05-02T07:02:18;101028.69;;;15.74;45.33
57948;BME280;43754;56.992;24.292;2023-05-02T07:04:50;101031.13;;;15.55;45.58
57948;BME280;43754;56.992;24.292;2023-05-02T07:07:22;101035.28;;;15.58;46.25
57948;BME280;43754;56.992;24.292;2023-05-02T07:09:56;101038.81;;;15.58;46.32
57948;BME280;43754;56.992;24.292;2023-05-02T07:12:28;101030.75;;;15.65;46.23
57948;BME280;43754;56.992;24.292;2023-05-02T07:15:00;101020.78;;;15.85;45.61
57948;BME280;43754;56.992;24.292;2023-05-02T07:17:32;101010.59;;;15.94;45.64
57948;BME280;43754;56.992;24.292;2023-05-02T07:20:06;101020.13;;;16.29;45.26
57948;BME280;43754;56.992;24.292;2023-05-02T07:22:38;101005.34;;;16.38;44.48
57948;BME280;43754;56.992;24.292;2023-05-02T07:25:12;101013.66;;;16.30;44.79
57948;BME280;43754;56.992;24.292;2023-05-02T07:27:44;101007.66;;;16.22;45.04
57948;BME280;43754;56.992;24.292;2023-05-02T07:30:17;101012.44;;;16.13;45.49
57948;BME280;43754;56.992;24.292;2023-05-02T07:32:49;100998.47;;;16.29;45.57
57948;BME280;43754;56.992;24.292;2023-05-02T07:35:21;100998.28;;;16.31;46.02
57948;BME280;43754;56.992;24.292;2023-05-02T07:37:53;100994.69;;;16.50;45.58
57948;BME280;43754;56.992;24.292;2023-05-02T07:40:26;100996.78;;;16.48;45.15
57948;BME280;43754;56.992;24.292;2023-05-02T07:42:59;100995.91;;;16.54;44.51
57948;BME280;43754;56.992;24.292;2023-05-02T07:45:31;101003.88;;;16.42;44.11
57948;BME280;43754;56.992;24.292;2023-05-02T07:48:04;100991.75;;;16.71;44.69
57948;BME280;43754;56.992;24.292;2023-05-02T07:50:36;100989.13;;;17.02;43.71
57948;BME280;43754;56.992;24.292;2023-05-02T07:53:08;100990.09;;;17.46;43.58
57948;BME280;43754;56.992;24.292;2023-05-02T07:55:43;101000.69;;;17.61;41.56
57948;BME280;43754;56.992;24.292;2023-05-02T07:58:15;100984.63;;;17.59;42.16
57948;BME280;43754;56.992;24.292;2023-05-02T08:00:47;100981.50;;;17.56;43.07
57948;BME280;43754;56.992;24.292;2023-05-02T08:03:19;100971.63;;;17.68;42.43
57948;BME280;43754;56.992;24.292;2023-05-02T08:05:52;100973.22;;;17.75;42.81
57948;BME280;43754;56.992;24.292;2023-05-02T08:08:23;100969.13;;;17.91;41.77
57948;BME280;43754;56.992;24.292;2023-05-02T08:10:57;100975.66;;;17.83;43.30
57948;BME280;43754;56.992;24.292;2023-05-02T08:13:29;100966.22;;;17.68;42.70
57948;BME280;43754;56.992;24.292;2023-05-02T08:16:01;100966.56;;;17.78;42.86
57948;BME280;43754;56.992;24.292;2023-05-02T08:18:33;100968.75;;;17.87;42.79
57948;BME280;43754;56.992;24.292;2023-05-02T08:21:05;100972.63;;;17.98;42.75
57948;BME280;43754;56.992;24.292;2023-05-02T08:23:39;100962.53;;;18.05;43.08
57948;BME280;43754;56.992;24.292;2023-05-02T08:26:12;100977.94;;;18.29;43.15
57948;BME280;43754;56.992;24.292;2023-05-02T08:28:45;100968.16;;;18.47;42.83
57948;BME280;43754;56.992;24.292;2023-05-02T08:31:17;100979.63;;;18.49;42.30
57948;BME280;43754;56.992;24.292;2023-05-02T08:33:49;100975.28;;;18.66;42.28
57948;BME280;43754;56.992;24.292;2023-05-02T08:36:21;100966.22;;;18.72;42.09
57948;BME280;43754;56.992;24.292;2023-05-02T08:38:53;100968.63;;;18.44;42.03
57948;BME280;43754;56.992;24.292;2023-05-02T08:41:28;100975.09;;;18.43;41.21
57948;BME280;43754;56.992;24.292;2023-05-02T08:44:01;100972.88;;;18.33;41.82
57948;BME280;43754;56.992;24.292;2023-05-02T08:46:34;100965.94;;;18.37;41.76
57948;BME280;43754;56.992;24.292;2023-05-02T08:49:09;100972.31;;;18.86;41.65
57948;BME280;43754;56.992;24.292;2023-05-02T08:51:42;100964.19;;;19.15;40.08
57948;BME280;43754;56.992;24.292;2023-05-02T08:54:16;100955.59;;;19.00;40.47
57948;BME280;43754;56.992;24.292;2023-05-02T08:56:52;100961.28;;;18.99;41.47
57948;BME280;43754;56.992;24.292;2023-05-02T08:59:24;100951.25;;;18.99;40.81
57948;BME280;43754;56.992;24.292;2023-05-02T09:02:00;100971.03;;;18.88;41.41
57948;BME280;43754;56.992;24.292;2023-05-02T09:04:40;100957.47;;;18.70;41.04
57948;BME280;43754;56.992;24.292;2023-05-02T09:07:13;100955.69;;;19.12;41.43
57948;BME280;43754;56.992;24.292;2023-05-02T09:09:46;100944.72;;;19.30;40.24
57948;BME280;43754;56.992;24.292;2023-05-02T09:12:24;100946.28;;;19.08;39.97
57948;BME280;43754;56.992;24.292;2023-05-02T09:15:10;100937.94;;;19.09;40.74
57948;BME280;43754;56.992;24.292;2023-05-02T09:17:43;100931.63;;;19.39;40.93
57948;BME280;43754;56.992;24.292;2023-05-02T09:20:16;100941.50;;;19.21;40.68
57948;BME280;43754;56.992;24.292;2023-05-02T09:22:49;100935.34;;;18.84;40.92
57948;BME280;43754;56.992;24.292;2023-05-02T09:25:21;100936.72;;;18.39;41.46
57948;BME280;43754;56.992;24.292;2023-05-02T09:27:55;100921.72;;;18.36;42.08
57948;BME280;43754;56.992;24.292;2023-05-02T09:30:27;100929.28;;;18.53;41.96
57948;BME280;43754;56.992;24.292;2023-05-02T09:32:59;100930.69;;;18.73;41.51
57948;BME280;43754;56.992;24.292;2023-05-02T09:35:32;100929.09;;;18.84;42.30
57948;BME280;43754;56.992;24.292;2023-05-02T09:38:07;100932.47;;;18.79;42.03
57948;BME280;43754;56.992;24.292;2023-05-02T09:40:52;100925.53;;;18.83;41.45
57948;BME280;43754;56.992;24.292;2023-05-02T09:43:28;100938.00;;;18.73;41.37
57948;BME280;43754;56.992;24.292;2023-05-02T09:46:01;100923.00;;;18.70;41.78
57948;BME280;43754;56.992;24.292;2023-05-02T09:48:51;100929.25;;;18.71;41.66
57948;BME280;43754;56.992;24.292;2023-05-02T09:51:24;100927.59;;;19.00;41.79
57948;BME280;43754;56.992;24.292;2023-05-02T09:53:56;100923.34;;;18.92;41.94
57948;BME280;43754;56.992;24.292;2023-05-02T09:56:28;100929.78;;;19.09;41.19
57948;BME280;43754;56.992;24.292;2023-05-02T09:59:14;100922.59;;;19.15;41.04
57948;BME280;43754;56.992;24.292;2023-05-02T10:01:54;100924.53;;;19.38;40.69
57948;BME280;43754;56.992;24.292;2023-05-02T10:04:27;100913.31;;;19.34;40.86
57948;BME280;43754;56.992;24.292;2023-05-02T10:07:01;100939.16;;;19.25;40.43
57948;BME280;43754;56.992;24.292;2023-05-02T10:09:34;100923.38;;;19.04;40.51
57948;BME280;43754;56.992;24.292;2023-05-02T10:12:07;100917.13;;;19.03;40.64
57948;BME280;43754;56.992;24.292;2023-05-02T10:14:46;100919.06;;;19.14;40.80
57948;BME280;43754;56.992;24.292;2023-05-02T10:17:22;100911.94;;;19.55;41.12
57948;BME280;43754;56.992;24.292;2023-05-02T10:20:02;100922.97;;;19.83;38.69
57948;BME280;43754;56.992;24.292;2023-05-02T10:22:35;100907.22;;;20.08;38.79
57948;BME280;43754;56.992;24.292;2023-05-02T10:25:08;100910.66;;;20.39;39.73
57948;BME280;43754;56.992;24.292;2023-05-02T10:27:40;100919.19;;;20.07;39.47
57948;BME280;43754;56.992;24.292;2023-05-02T10:30:14;100909.56;;;20.16;39.17
57948;BME280;43754;56.992;24.292;2023-05-02T10:32:48;100910.53;;;20.34;39.20
57948;BME280;43754;56.992;24.292;2023-05-02T10:35:24;100903.69;;;20.19;39.25
57948;BME280;43754;56.992;24.292;2023-05-02T10:37:57;100895.75;;;20.30;39.79
57948;BME280;43754;56.992;24.292;2023-05-02T10:40:31;100889.69;;;20.39;40.17
57948;BME280;43754;56.992;24.292;2023-05-02T10:43:03;100896.34;;;20.20;38.88
57948;BME280;43754;56.992;24.292;2023-05-02T10:45:37;100891.97;;;19.96;38.50
57948;BME280;43754;56.992;24.292;2023-05-02T10:48:16;100892.34;;;19.76;38.94
57948;BME280;43754;56.992;24.292;2023-05-02T10:50:50;100895.75;;;19.83;39.44
57948;BME280;43754;56.992;24.292;2023-05-02T10:53:29;100898.25;;;19.85;38.82
57948;BME280;43754;56.992;24.292;2023-05-02T10:56:23;100897.31;;;20.02;38.54
57948;BME280;43754;56.992;24.292;2023-05-02T10:59:27;100893.13;;;20.23;38.60
57948;BME280;43754;56.992;24.292;2023-05-02T11:02:01;100895.38;;;20.38;38.25
57948;BME280;43754;56.992;24.292;2023-05-02T11:05:06;100893.47;;;20.27;38.20
57948;BME280;43754;56.992;24.292;2023-05-02T11:07:38;100900.50;;;20.11;39.18
57948;BME280;43754;56.992;24.292;2023-05-02T11:10:26;100897.66;;;19.48;39.36
57948;BME280;43754;56.992;24.292;2023-05-02T11:12:58;100901.16;;;19.37;40.34
57948;BME280;43754;56.992;24.292;2023-05-02T11:15:53;100906.25;;;19.03;40.34
57948;BME280;43754;56.992;24.292;2023-05-02T11:18:56;100895.28;;;18.80;40.28
57948;BME280;43754;56.992;24.292;2023-05-02T11:21:29;100897.03;;;18.74;40.97
57948;BME280;43754;56.992;24.292;2023-05-02T11:27:36;100898.97;;;18.56;42.09
57948;BME280;43754;56.992;24.292;2023-05-02T11:30:14;100911.56;;;18.32;42.10
57948;BME280;43754;56.992;24.292;2023-05-02T11:33:15;100913.38;;;17.95;42.64
57948;BME280;43754;56.992;24.292;2023-05-02T11:35:49;100895.50;;;17.69;43.80
57948;BME280;43754;56.992;24.292;2023-05-02T11:38:21;100905.69;;;17.74;44.41
57948;BME280;43754;56.992;24.292;2023-05-02T11:40:56;100910.78;;;17.64;43.88
57948;BME280;43754;56.992;24.292;2023-05-02T11:43:28;100914.19;;;17.53;45.18
57948;BME280;43754;56.992;24.292;2023-05-02T11:46:05;100918.94;;;17.32;44.68
57948;BME280;43754;56.992;24.292;2023-05-02T11:48:38;100921.50;;;17.21;44.68
57948;BME280;43754;56.992;24.292;2023-05-02T11:51:11;100917.22;;;17.07;44.96
57948;BME280;43754;56.992;24.292;2023-05-02T11:53:43;100930.97;;;17.05;45.21
57948;BME280;43754;56.992;24.292;2023-05-02T11:56:22;100929.34;;;16.97;46.20
57948;BME280;43754;56.992;24.292;2023-05-02T11:58:58;100934.59;;;16.92;47.18
57948;BME280;43754;56.992;24.292;2023-05-02T12:01:30;100933.94;;;16.97;46.69
57948;BME280;43754;56.992;24.292;2023-05-02T12:04:04;100932.53;;;16.88;47.39
57948;BME280;43754;56.992;24.292;2023-05-02T12:06:53;100935.16;;;17.01;47.02
57948;BME280;43754;56.992;24.292;2023-05-02T12:09:25;100944.50;;;17.05;47.09
57948;BME280;43754;56.992;24.292;2023-05-02T12:11:57;100938.31;;;16.98;48.89
57948;BME280;43754;56.992;24.292;2023-05-02T12:14:29;100939.09;;;17.05;49.57
57948;BME280;43754;56.992;24.292;2023-05-02T12:17:04;100939.16;;;16.98;48.19
57948;BME280;43754;56.992;24.292;2023-05-02T12:19:37;100941.84;;;16.98;47.99
57948;BME280;43754;56.992;24.292;2023-05-02T12:22:11;100938.91;;;17.00;48.30
57948;BME280;43754;56.992;24.292;2023-05-02T12:24:45;100941.84;;;16.98;47.92
57948;BME280;43754;56.992;24.292;2023-05-02T12:27:17;100940.19;;;16.91;48.63
57948;BME280;43754;56.992;24.292;2023-05-02T12:29:49;100934.66;;;16.79;49.13
57948;BME280;43754;56.992;24.292;2023-05-02T12:32:29;100934.94;;;16.58;48.92
57948;BME280;43754;56.992;24.292;2023-05-02T12:35:02;100945.38;;;16.41;49.63
57948;BME280;43754;56.992;24.292;2023-05-02T12:37:36;100945.25;;;16.23;51.74
57948;BME280;43754;56.992;24.292;2023-05-02T12:40:14;100965.03;;;16.04;52.58
57948;BME280;43754;56.992;24.292;2023-05-02T12:43:02;100962.31;;;16.04;53.12
57948;BME280;43754;56.992;24.292;2023-05-02T12:45:35;101001.41;;;15.95;52.85
57948;BME280;43754;56.992;24.292;2023-05-02T12:48:22;101041.09;;;15.61;55.71
57948;BME280;43754;56.992;24.292;2023-05-02T12:50:55;101053.03;;;14.72;61.93
57948;BME280;43754;56.992;24.292;2023-05-02T12:53:49;101054.72;;;13.96;67.87
57948;BME280;43754;56.992;24.292;2023-05-02T12:56:21;101078.75;;;13.34;71.72
57948;BME280;43754;56.992;24.292;2023-05-02T12:58:53;101096.78;;;13.04;74.71
57948;BME280;43754;56.992;24.292;2023-05-02T13:01:25;101101.03;;;12.69;81.07
57948;BME280;43754;56.992;24.292;2023-05-02T13:03:58;101130.16;;;12.14;89.33
57948;BME280;43754;56.992;24.292;2023-05-02T13:06:30;101145.31;;;11.84;94.68
57948;BME280;43754;56.992;24.292;2023-05-02T13:09:03;101157.84;;;11.30;99.46
57948;BME280;43754;56.992;24.292;2023-05-02T13:11:35;101167.91;;;11.28;100.00
57948;BME280;43754;56.992;24.292;2023-05-02T13:14:09;101166.94;;;11.21;100.00
57948;BME280;43754;56.992;24.292;2023-05-02T13:16:42;101180.38;;;11.13;100.00
57948;BME280;43754;56.992;24.292;2023-05-02T13:19:14;101179.38;;;11.14;100.00
57948;BME280;43754;56.992;24.292;2023-05-02T13:21:46;101192.44;;;11.17;100.00
57948;BME280;43754;56.992;24.292;2023-05-02T13:24:19;101186.31;;;10.84;100.00
57948;BME280;43754;56.992;24.292;2023-05-02T13:26:51;101193.88;;;10.80;100.00